KLGB/LGB METAR and TAF weather

Enter ICAO airport designator
Station Type Date Time Source
KLGB METAR 2019/02/22 23:53 UTC NOAA

KLGB 222353Z 23009KT 10SM CLR 15/M01 A3004 RMK AO2 SLP172 T01501011 10156 20117 53009


Station Type Date Time Source
KLGB Decoded METAR 2019/02/22 23:53 UTC NOAA

LONG BEACH AIRPORT, CA, United States (KLGB) 33-49N 118-09W 10M
Feb 22, 2019 - 06:53 PM EST / 2019.02.22 2353 UTC
Wind: from the SW (230 degrees) at 10 MPH (9 KT):0
Visibility: 10 mile(s):0
Sky conditions: clear
Temperature: 59.0 F (15.0 C)
Dew Point: 30.0 F (-1.1 C)
Relative Humidity: 33%
Pressure (altimeter): 30.04 in. Hg (1017 hPa)
Pressure tendency: 0.03 inches (0.9 hPa) higher than three hours ago
ob: KLGB 222353Z 23009KT 10SM CLR 15/M01 A3004 RMK AO2 SLP172 T01501011 10156 20117 53009
cycle: 0

Station Type Date Time Source
KLGB TAF 2019/02/22 18:33 UTC NOAA

TAF KLGB 221731Z 2218/2318 VRB03KT P6SM SKC
FM222000 22006KT P6SM SKC
FM222300 30012KT P6SM SKC
FM230200 30007KT P6SM SKC
FM230400 VRB03KT P6SM SKC


Example: see airport list